Terminal Aerodrome Forecast
Issued by NWS Billings, MT

Home | Current Version | Previous Version | Graphics & Text | Print | Product List | Glossary On
Versions: 1 2 3 4 5 6 7 8 9 10 11 12 13 14 15 16 17 18 19 20 21 22 23 24 25 26 27 28 29
000
FTUS45 KBYZ 282328
TAFMLS
TAF
KMLS 282328Z 2900/2924 31030G45KT P6SM SCT120 BKN200
     FM290400 31030G45KT P6SM VCSH SCT040 BKN100
     FM290800 31020G35KT P6SM SCT040 SCT150
     FM291100 31016KT P6SM SCT050 SCT200
     FM291900 27013KT P6SM SCT050 SCT200=

USA.gov is the U.S. government's official web portal to all federal, state and local government web resources and services.